20:17
Airports
History
Links
Donate
Help keep this website running!
PayPal
Bitcoin
Information on this page is community maintained and may be outdated or inaccurate and is intended for reference only or PC simulator navigating.
Always use approved charts for navigating.
VERC
BIRSA MUNDA
BIRSA MUNDA (VERC)
Ranchi, Jharkhand, India (834003)
(C)
Lat/Lng:23° 18' 52.81" N / 85° 19' 18.03" E
23.314669 / 85.321675
Elevation:2148'ft 655mMSL
ID / ICAO:VERC
Runways:1
Longest:(13-31) 2,703.7m 8,870ft Asphalt
Controlled:Yes
Distance To
Airport ID:
Airport Radio Frequencies
Tower: 122.3
Nearby VORs <50NM
Nearby NDBs
METARUpdated 05-28-17 18:00 GMT
Altimeter: 29.74
Visibility: 3.1 statute miles
Wind: 8 knots (170°)
Temp: 25°c 77°f
Humidity: 69.4%

METAR: VERC 281800Z 17008KT 5000 TS SCT018 FEW030CB BKN100 25/19 Q1007 NOSIG

(Powered by phpweather)
Runway 13 / 31
Dimensions:2703.7 x 45.1m 8870' x 148'ft
Surface:Asphalt
Edge Lights:High intensity
Runway 13 [A]Runway 31 [B]
Heading:130°TH 310°TH
Lat:
Lng:
23° 19' 21.11"N
85° 18' 41.75"E
23° 18' 24.5"N
85° 19' 54.31"E
ALS:SALSSALS
User Notes and Comments
Google Map
Nearby Airports
(U) BOKARO 57.1 NM
VEBK ENE 66°
(C) JAMSHEDPUR 64.0 NM
VEJS (WX) ESE 122°
(U) DHANBAD 78.6 NM
VEDB ENE 62°
(U) ROURKELA 79.9 NM
VERK SSW 203°
(U) GIRIDIH 86.6 NM
VE41 NE 44°
(U) DALTONGANJ 91.6 NM
VE54 WNW 302°
(C) GAYA 101.5 NM
VEGY (WX) NNW 346°
VFR Chart
Flight Planning at SkyVector.com